• Join FlightAware (Why Join?)
  • Login
  • US Flag 
03:11AM EST


 

Airport Tracker/Info


-or-


 

Live Flight TrackerFlight Track Log ✈ TRS265 ✈ 13-Apr-2014 ✈ KIND - KATL

Flight Track Log - Related Links

Times and Time Zones

All times are in EDT time to prevent confusion due to time zone crossing. See the TRS265 flight status page for this flight to view local times or setup timezone preferences in your user account.

Time Position Orientation Groundspeed Altitude Reporting Facility
EDT Latitude Longitude Course Direction KTS MPH feet Rate Location/Type
10:46AM 39.7000 -86.3000 270° West 141 162 1,600  Level Indianapolis TRACON
10:47AM 39.7000 -86.3167 224° Southwest 141 162 2,200 1,860 Climbing Indianapolis TRACON
10:48AM 39.6667 -86.3500 218° Southwest 187 215 3,900 1,440 Climbing Indianapolis TRACON
10:49AM 39.5983 -86.3597 186° South 221 254 5,300 1,920 Climbing Indianapolis Center
10:50AM 39.5281 -86.3500 174° South 250 288 8,000 2,400 Climbing Indianapolis Center
10:51AM 39.4561 -86.3411 175° South 256 295 10,300 1,740 Climbing Indianapolis Center
10:52AM 39.3586 -86.3303 175° South 291 335 11,700 1,560 Climbing Indianapolis Center
10:53AM 39.2678 -86.3164 173° South 323 372 13,600 1,980 Climbing Indianapolis Center
10:54AM 39.1736 -86.3036 174° South 335 386 15,800 1,980 Climbing Indianapolis Center
10:55AM 39.0772 -86.2939 176° South 343 395 17,700 1,800 Climbing Indianapolis Center
10:56AM 38.9764 -86.2800 174° South 358 412 19,500 1,860 Climbing Indianapolis Center
10:57AM 38.8539 -86.2647 174° South 378 435 21,600 1,680 Climbing Indianapolis Center
10:58AM 38.7414 -86.2508 174° South 395 455 23,000 1,380 Climbing Indianapolis Center
10:59AM 38.6214 -86.2344 174° South 418 481 24,500 1,380 Climbing Indianapolis Center
11:00AM 38.5022 -86.2375 181° South 425 489 25,900 1,260 Climbing Indianapolis Center
11:01AM 38.3817 -86.2531 186° South 427 491 27,100 1,020 Climbing Indianapolis Center
11:02AM 38.2600 -86.2681 186° South 428 493 28,100 1,080 Climbing Indianapolis Center
11:03AM 38.1322 -86.2858 186° South 446 513 29,400 1,200 Climbing Indianapolis Center
11:04AM 38.0069 -86.3028 186° South 447 514 30,700 1,440 Climbing Indianapolis Center
11:05AM 37.8833 -86.3197 186° South 447 514 32,400 1,080 Climbing Indianapolis Center
11:06AM 37.7572 -86.3728 198° South 427 491 33,000 240 Climbing Indianapolis Center
11:07AM 37.6444 -86.4281 201° Southwest 426 490 33,000  Level Indianapolis Center
11:08AM 37.5339 -86.4831 202° Southwest 426 490 33,000  Level Indianapolis Center
11:09AM 37.4125 -86.5000 186° South 437 503 33,000  Level Indianapolis Center
11:10AM 37.2847 -86.4836 174° South 449 517 33,000  Level Indianapolis Center
11:11AM 37.1544 -86.4711 176° South 458 527 33,000  Level Indianapolis Center
11:12AM 37.0461 -86.4653 178° South 460 529 33,000  Level Memphis Center
11:13AM 36.9125 -86.4550 176° South 469 540 33,000  Level Memphis Center
11:14AM 36.7783 -86.4447 176° South 472 543 33,000  Level Memphis Center
11:15AM 36.6444 -86.4344 176° South 475 547 33,000  Level Memphis Center
11:16AM 36.5089 -86.4236 176° South 475 547 33,000  Level Memphis Center
11:17AM 36.3708 -86.4133 177° South 482 555 33,000  Level Memphis Center
11:18AM 36.2333 -86.4033 177° South 483 556 33,000  Level Memphis Center
11:19AM 36.0969 -86.3942 177° South 483 556 33,000  Level Memphis Center
11:20AM 35.9608 -86.3747 173° South 484 557 33,000  Level Memphis Center
11:21AM 35.8353 -86.2994 154° Southeast 494 568 33,000  Level Memphis Center
11:22AM 35.6883 -86.2086 153° Southeast 499 574 33,000  Level Memphis Center
11:24AM 35.5092 -86.0983 153° Southeast 499 574 33,000  Level Indianapolis Center
11:24AM 35.4339 -86.0525 154° Southeast 500 575 33,000  Level Memphis Center
11:26AM 35.3097 -85.9761 153° Southeast 501 577 33,000  Level Memphis Center
11:27AM 35.1894 -85.9033 154° Southeast 492 566 33,000  Level Memphis Center
11:28AM 35.0692 -85.8294 153° Southeast 488 562 33,000 -180 Level Memphis Center
11:29AM 34.9561 -85.7375 146° Southeast 488 562 32,700 -1,740 Descending Memphis Center
11:30AM 34.8200 -85.6300 147° Southeast 489 563 29,500 -2,700 Descending Memphis Center
11:31AM 34.6889 -85.5292 148° Southeast 480 552 26,700 -2,400 Descending Atlanta Center
11:32AM 34.5814 -85.4467 148° Southeast 474 545 24,300 -2,460 Descending Atlanta Center
11:33AM 34.4781 -85.3667 147° Southeast 462 532 21,800 -2,460 Descending Atlanta Center
11:34AM 34.3869 -85.2922 146° Southeast 429 494 19,400 -2,280 Descending Atlanta Center
11:35AM 34.2936 -85.2231 149° Southeast 396 456 17,300 -2,100 Descending Atlanta Center
11:36AM 34.2086 -85.1567 147° Southeast 374 430 15,200 -1,980 Descending Atlanta Center
11:37AM 34.1364 -85.0828 140° Southeast 358 412 13,400 -1,140 Descending Atlanta Center
11:38AM 34.0783 -85.0094 134° Southeast 317 365 13,000 -600 Descending Atlanta Center
11:39AM 34.0228 -84.9386 133° Southeast 298 343 12,200 -720 Descending Atlanta Center
11:40AM 33.9667 -84.8678 134° Southeast 298 343 11,600 -780 Descending Atlanta Center
11:41AM 33.8961 -84.8247 153° Southeast 287 330 10,700 -1,020 Descending Atlanta Center
11:42AM 33.8231 -84.8039 167° South 272 313 9,600 -1,620 Descending Atlanta Center
11:43AM 33.7544 -84.7808 164° South 265 305 7,500 -1,740 Descending Atlanta Center
11:44AM 33.6833 -84.7333 151° Southeast 254 292 5,800 -1,200 Descending Atlanta TRACON
11:45AM 33.6500 -84.6667 121° Southeast 203 234 4,900 -1,020 Descending Atlanta TRACON
11:46AM 33.6500 -84.6000 90° East 205 236 3,700 -1,140 Descending Atlanta TRACON
11:47AM 33.6500 -84.5333 90° East 194 223 2,600 -1,020 Descending Atlanta TRACON
11:48AM 33.6500 -84.4833 90° East 154 177 1,700 -840 Descending Atlanta TRACON
11:49AM 33.6500 -84.4333 90° East 147 169 1,100 -720 Descending Atlanta TRACON
11:51AM 33.6367 -84.4279 North  Level Estimated